Time;durP1;ratioP1;P1;durP2;ratioP2;P2;SDS_P1;SDS_P2;PMS_P1;PMS_P2;Temp;Humidity;BMP_temperature;BMP_pressure;BME280_temperature;BME280_humidity;BME280_pressure;Samples;Min_cycle;Max_cycle;Signal;HPM_P1;HPM_P2
2023/07/27 00:00:41;;;;;;;;;;;;;;;25.23;62.41;99780.88;7395817;19;1201;-41
2023/07/27 00:03:09;;;;;;;;;;;;;;;25.13;62.82;99776.66;7397941;19;1259;-42
2023/07/27 00:05:37;;;;;;;;;;;;;;;25.10;62.70;99778.91;7396484;19;1539;-41
2023/07/27 00:08:06;;;;;;;;;;;;;;;25.08;62.46;99784.53;7396478;19;1853;-42
2023/07/27 00:10:37;;;;;;;;;;;;;;;25.11;62.18;99794.09;7396264;19;1400;-41
2023/07/27 00:13:05;;;;;;;;;;;;;;;25.11;62.25;99796.81;7397920;19;963;-41
2023/07/27 00:15:33;;;;;;;;;;;;;;;25.16;62.17;99791.66;7395959;19;1574;-41
2023/07/27 00:18:02;;;;;;;;;;;;;;;25.15;61.96;99795.41;7395033;19;1761;-40
2023/07/27 00:20:30;;;;;;;;;;;;;;;25.17;61.88;99796.88;7395809;19;1460;-41
2023/07/27 00:22:58;;;;;;;;;;;;;;;25.04;62.04;99796.78;7398854;19;1052;-41
2023/07/27 00:25:26;;;;;;;;;;;;;;;25.09;61.73;99813.25;7397551;19;1893;-41
2023/07/27 00:27:57;;;;;;;;;;;;;;;25.08;61.67;99791.81;7396441;19;1825;-42
2023/07/27 00:30:26;;;;;;;;;;;;;;;25.09;61.95;99793.47;7395852;19;1858;-41
2023/07/27 00:32:54;;;;;;;;;;;;;;;25.11;61.61;99794.09;7397201;19;1737;-41
2023/07/27 00:35:22;;;;;;;;;;;;;;;25.17;61.27;99793.31;7395489;19;1460;-41
2023/07/27 00:37:50;;;;;;;;;;;;;;;25.13;61.18;99805.59;7395276;19;1810;-41
2023/07/27 00:40:19;;;;;;;;;;;;;;;25.13;61.32;99794.78;7395844;19;1535;-42
2023/07/27 00:42:48;;;;;;;;;;;;;;;25.14;61.11;99805.38;7396710;19;1208;-41
2023/07/27 00:45:19;;;;;;;;;;;;;;;25.17;60.89;99812.28;7396395;19;1582;-41
2023/07/27 00:47:47;;;;;;;;;;;;;;;25.15;60.92;99795.41;7396388;19;1849;-41
2023/07/27 00:50:15;;;;;;;;;;;;;;;25.13;61.02;99797.47;7395720;19;1225;-41
2023/07/27 00:52:44;;;;;;;;;;;;;;;25.11;60.90;99802.22;7396037;19;1842;-41
2023/07/27 00:55:12;;;;;;;;;;;;;;;25.09;61.18;99807.84;7397502;19;1734;-41
2023/07/27 00:57:41;;;;;;;;;;;;;;;25.11;60.65;99799.50;7397270;19;1674;-41
2023/07/27 01:00:10;;;;;;;;;;;;;;;25.12;60.48;99790.38;7398749;19;1409;-41
2023/07/27 01:02:41;;;;;;;;;;;;;;;25.11;60.53;99796.81;7403903;19;1793;-41
2023/07/27 01:05:09;;;;;;;;;;;;;;;25.15;60.22;99814.34;7401585;19;1397;-41
2023/07/27 01:07:38;;;;;;;;;;;;;;;25.10;60.42;99811.38;7403327;19;1882;-41
2023/07/27 01:10:06;;;;;;;;;;;;;;;25.07;60.38;99823.44;7404334;19;1507;-41
2023/07/27 01:12:37;;;;;;;;;;;;;;;25.09;60.39;99818.66;7404388;19;958;-41
2023/07/27 01:15:09;;;;;;;;;;;;;;;25.11;60.19;99829.28;7402248;19;1558;-41
2023/07/27 01:17:43;;;;;;;;;;;;;;;25.08;59.86;99833.22;7403900;19;950;-41
2023/07/27 01:20:17;;;;;;;;;;;;;;;25.07;59.83;99831.56;7400863;19;1857;-41
2023/07/27 01:22:52;;;;;;;;;;;;;;;25.04;60.03;99836.53;7403529;19;1810;-41
2023/07/27 01:25:28;;;;;;;;;;;;;;;25.05;59.43;99825.50;7403834;19;1866;-41
2023/07/27 01:28:04;;;;;;;;;;;;;;;25.01;59.20;99845.88;7402197;19;1847;-41
2023/07/27 01:30:52;;;;;;;;;;;;;;;25.00;59.00;99847.72;7402610;19;1555;-41
2023/07/27 01:33:24;;;;;;;;;;;;;;;24.96;58.99;99853.75;7402772;19;1396;-41
2023/07/27 01:36:09;;;;;;;;;;;;;;;24.94;58.85;99848.53;7402157;19;1842;-41
2023/07/27 01:38:38;;;;;;;;;;;;;;;24.95;58.62;99855.63;7403445;19;1722;-41
2023/07/27 01:41:08;;;;;;;;;;;;;;;24.94;58.60;99858.50;7401571;19;1541;-41
2023/07/27 01:43:37;;;;;;;;;;;;;;;24.85;58.68;99868.66;7403216;19;1060;-41
2023/07/27 01:46:09;;;;;;;;;;;;;;;24.87;58.31;99860.31;7402844;19;1878;-41
2023/07/27 01:48:39;;;;;;;;;;;;;;;24.99;58.06;99873.13;7398295;19;1885;-41
2023/07/27 01:51:08;;;;;;;;;;;;;;;25.04;57.95;99879.81;7402691;19;1326;-41
2023/07/27 01:53:37;;;;;;;;;;;;;;;24.99;57.96;99873.13;7401985;19;1975;-41
2023/07/27 01:56:06;;;;;;;;;;;;;;;24.95;57.94;99854.78;7401699;19;1219;-41
2023/07/27 01:58:35;;;;;;;;;;;;;;;24.89;57.53;99856.41;7402293;19;1054;-41
2023/07/27 02:01:04;;;;;;;;;;;;;;;24.93;57.80;99862.22;7402043;19;1547;-41
2023/07/27 02:03:35;;;;;;;;;;;;;;;24.91;57.42;99869.72;7397175;19;2151;-41
2023/07/27 02:06:04;;;;;;;;;;;;;;;24.88;57.52;99887.16;7401731;19;1179;-41
2023/07/27 02:08:32;;;;;;;;;;;;;;;24.87;57.33;99873.84;7400104;19;1858;-41
2023/07/27 02:11:02;;;;;;;;;;;;;;;24.76;57.53;99867.09;7399020;19;1478;-41
2023/07/27 02:13:34;;;;;;;;;;;;;;;24.77;57.10;99863.34;7400956;19;1168;-40
2023/07/27 02:16:05;;;;;;;;;;;;;;;24.73;56.99;99865.63;7401200;19;1567;-41
2023/07/27 02:18:37;;;;;;;;;;;;;;;24.78;56.98;99875.84;7401182;19;1565;-41
2023/07/27 02:21:06;;;;;;;;;;;;;;;24.77;56.48;99883.16;7398678;19;1199;-41
2023/07/27 02:23:35;;;;;;;;;;;;;;;24.80;56.78;99873.78;7398986;19;1450;-41
2023/07/27 02:26:03;;;;;;;;;;;;;;;24.77;56.67;99885.00;7397506;19;1497;-43
2023/07/27 02:28:32;;;;;;;;;;;;;;;24.71;56.99;99893.88;7400388;19;1849;-41
2023/07/27 02:31:00;;;;;;;;;;;;;;;24.72;56.46;99882.03;7398143;19;1176;-41
2023/07/27 02:33:28;;;;;;;;;;;;;;;24.77;56.47;99887.69;7400292;19;1549;-41
2023/07/27 02:35:59;;;;;;;;;;;;;;;24.68;56.67;99892.41;7400906;19;1583;-41
2023/07/27 02:38:27;;;;;;;;;;;;;;;24.74;56.32;99896.22;7399797;19;1596;-41
2023/07/27 02:40:56;;;;;;;;;;;;;;;24.65;56.37;99891.97;7398985;19;1687;-41
2023/07/27 02:43:24;;;;;;;;;;;;;;;24.58;56.40;99905.41;7400297;19;1258;-41
2023/07/27 02:45:52;;;;;;;;;;;;;;;24.55;56.18;99913.91;7399926;19;1624;-41
2023/07/27 02:48:21;;;;;;;;;;;;;;;24.52;56.09;99919.72;7398980;19;1949;-42
2023/07/27 02:50:52;;;;;;;;;;;;;;;24.44;56.23;99909.81;7400173;19;1532;-42
2023/07/27 02:53:23;;;;;;;;;;;;;;;24.38;56.38;99918.69;7400660;19;1042;-42
2023/07/27 02:56:00;;;;;;;;;;;;;;;24.31;56.22;99912.38;7400846;19;1054;-40
2023/07/27 02:58:29;;;;;;;;;;;;;;;24.29;56.05;99909.03;7400632;19;1034;-41
2023/07/27 03:01:00;;;;;;;;;;;;;;;24.31;55.99;99924.03;7399778;19;1274;-41
2023/07/27 03:03:28;;;;;;;;;;;;;;;24.29;55.75;99925.25;7399628;19;1567;-41
2023/07/27 03:06:00;;;;;;;;;;;;;;;24.39;55.68;99932.03;7399223;19;1569;-41
2023/07/27 03:08:32;;;;;;;;;;;;;;;24.42;55.39;99930.81;7398930;19;1859;-41
2023/07/27 03:11:03;;;;;;;;;;;;;;;24.51;55.23;99934.25;7398823;19;1299;-41
2023/07/27 03:13:31;;;;;;;;;;;;;;;24.50;55.21;99925.31;7399260;19;1176;-41
2023/07/27 03:16:00;;;;;;;;;;;;;;;24.55;54.97;99939.09;7399622;19;1450;-41
2023/07/27 03:18:28;;;;;;;;;;;;;;;24.56;54.95;99948.84;7399144;19;1585;-41
2023/07/27 03:20:56;;;;;;;;;;;;;;;24.63;54.98;99937.28;7396981;19;1580;-41
2023/07/27 03:23:25;;;;;;;;;;;;;;;24.60;55.14;99946.59;7396863;19;1536;-41
2023/07/27 03:25:55;;;;;;;;;;;;;;;24.57;55.18;99944.28;7398762;19;1248;-42
2023/07/27 03:28:24;;;;;;;;;;;;;;;24.53;54.89;99959.22;7398611;19;1842;-41
2023/07/27 03:30:52;;;;;;;;;;;;;;;24.57;54.64;99955.94;7398292;19;1227;-40
2023/07/27 03:33:20;;;;;;;;;;;;;;;24.61;54.49;99956.38;7398658;19;1223;-41
2023/07/27 03:35:49;;;;;;;;;;;;;;;24.55;54.61;99947.19;7399002;19;1527;-41
2023/07/27 03:38:17;;;;;;;;;;;;;;;24.57;54.17;99961.34;7398869;19;1837;-41
2023/07/27 03:40:45;;;;;;;;;;;;;;;24.56;54.39;99950.72;7398608;19;1552;-41
2023/07/27 03:43:16;;;;;;;;;;;;;;;24.57;54.46;99961.34;7398270;19;1268;-41
2023/07/27 03:45:45;;;;;;;;;;;;;;;24.53;54.16;99960.06;7398294;19;1480;-41
2023/07/27 03:48:13;;;;;;;;;;;;;;;24.52;54.04;99952.97;7386191;19;1855;-41
2023/07/27 03:50:41;;;;;;;;;;;;;;;24.50;54.02;99933.41;7399101;19;1619;-43
2023/07/27 03:53:09;;;;;;;;;;;;;;;24.51;53.64;99940.50;7399044;19;1040;-41
2023/07/27 03:55:38;;;;;;;;;;;;;;;24.54;53.49;99956.31;7398978;19;1886;-41
2023/07/27 03:58:06;;;;;;;;;;;;;;;24.52;53.49;99957.56;7398679;19;1873;-41
2023/07/27 04:00:37;;;;;;;;;;;;;;;24.54;53.52;99950.91;7399163;19;1404;-41
2023/07/27 04:03:05;;;;;;;;;;;;;;;24.62;53.05;99949.97;7397879;19;1808;-41
2023/07/27 04:05:34;;;;;;;;;;;;;;;24.57;53.45;99953.25;7398375;19;1744;-41
2023/07/27 04:08:02;;;;;;;;;;;;;;;24.56;53.41;99965.06;7397921;19;1853;-41
2023/07/27 04:10:31;;;;;;;;;;;;;;;24.64;53.23;99960.59;7396462;19;1835;-42
2023/07/27 04:13:00;;;;;;;;;;;;;;;24.61;52.92;99973.47;7396641;19;1031;-41
2023/07/27 04:15:28;;;;;;;;;;;;;;;24.59;53.09;99966.53;7397036;19;1821;-41
2023/07/27 04:17:59;;;;;;;;;;;;;;;24.56;52.82;99969.66;7397403;19;1803;-41
2023/07/27 04:20:27;;;;;;;;;;;;;;;24.60;52.98;99971.78;7397238;19;1068;-41
2023/07/27 04:22:56;;;;;;;;;;;;;;;24.55;52.91;99959.84;7399014;19;932;-41
2023/07/27 04:25:24;;;;;;;;;;;;;;;24.65;53.07;99979.31;7396362;19;1432;-41
2023/07/27 04:27:52;;;;;;;;;;;;;;;24.68;53.04;99976.22;7397767;19;1586;-41
2023/07/27 04:30:21;;;;;;;;;;;;;;;24.68;53.14;99972.69;7397244;19;1841;-41
2023/07/27 04:32:49;;;;;;;;;;;;;;;24.60;53.18;99977.19;7397700;19;1883;-60
2023/07/27 04:35:20;;;;;;;;;;;;;;;24.65;53.44;99968.50;7395777;19;1853;-41
2023/07/27 04:37:48;;;;;;;;;;;;;;;24.63;53.22;99964.31;7396191;19;1502;-41
2023/07/27 04:40:19;;;;;;;;;;;;;;;24.61;53.31;99961.78;7395468;19;1401;-41
2023/07/27 04:42:47;;;;;;;;;;;;;;;24.46;53.52;99963.69;7398855;19;1002;-41
2023/07/27 04:45:15;;;;;;;;;;;;;;;24.40;53.38;99981.50;7395810;19;1827;-41
2023/07/27 04:47:43;;;;;;;;;;;;;;;24.35;53.33;99979.38;7397069;19;979;-41
2023/07/27 04:50:12;;;;;;;;;;;;;;;24.40;52.92;99986.91;7395112;19;1841;-41
2023/07/27 04:52:43;;;;;;;;;;;;;;;24.43;53.14;99991.91;7395630;19;1278;-41
2023/07/27 04:55:11;;;;;;;;;;;;;;;24.33;53.13;99986.84;7394671;19;1406;-40
2023/07/27 04:57:39;;;;;;;;;;;;;;;24.35;52.82;99992.03;7396199;19;1409;-41
2023/07/27 05:00:09;;;;;;;;;;;;;;;24.25;52.85;99999.59;7395023;19;1197;-41
2023/07/27 05:02:37;;;;;;;;;;;;;;;24.21;52.77;100002.69;7396146;19;1334;-41
2023/07/27 05:05:05;;;;;;;;;;;;;;;24.13;52.58;99996.53;7393463;19;1409;-41
2023/07/27 05:07:34;;;;;;;;;;;;;;;24.07;53.02;100005.41;7395252;19;1536;-41
2023/07/27 05:10:05;;;;;;;;;;;;;;;24.28;52.72;100010.03;7386276;19;1838;-41
2023/07/27 05:12:33;;;;;;;;;;;;;;;24.59;52.36;100021.47;7391784;19;1229;-41
2023/07/27 05:15:02;;;;;;;;;;;;;;;24.69;52.29;100028.41;7389930;19;1466;-41
2023/07/27 05:17:30;;;;;;;;;;;;;;;24.83;52.14;100030.25;7391885;19;1608;-41
2023/07/27 05:19:58;;;;;;;;;;;;;;;24.80;51.93;100025.22;7390115;19;1223;-41
2023/07/27 05:22:27;;;;;;;;;;;;;;;24.78;52.26;100025.41;7389347;19;1260;-41
2023/07/27 05:24:55;;;;;;;;;;;;;;;24.88;51.66;100037.78;7390692;19;1615;-41
2023/07/27 05:27:26;;;;;;;;;;;;;;;24.84;51.92;100031.91;7391472;19;1165;-41
2023/07/27 05:29:54;;;;;;;;;;;;;;;24.86;51.82;100027.16;7389875;19;1876;-41
2023/07/27 05:32:23;;;;;;;;;;;;;;;24.95;52.17;100031.41;7391252;19;1157;-41
2023/07/27 05:34:51;;;;;;;;;;;;;;;24.69;52.32;100029.28;7390660;19;1551;-41
2023/07/27 05:37:19;;;;;;;;;;;;;;;24.68;52.20;100024.88;7391066;19;1930;-41
2023/07/27 05:39:47;;;;;;;;;;;;;;;24.71;51.85;100019.09;7390948;19;1573;-41
2023/07/27 05:42:16;;;;;;;;;;;;;;;24.73;52.05;100018.91;7390694;19;1272;-41
2023/07/27 05:44:46;;;;;;;;;;;;;;;24.73;51.76;100021.59;7389722;19;1297;-41
2023/07/27 05:47:17;;;;;;;;;;;;;;;24.77;51.32;100018.34;7397543;19;1547;-41
2023/07/27 05:49:46;;;;;;;;;;;;;;;24.68;51.81;100015.94;7397538;19;1858;-41
2023/07/27 05:52:14;;;;;;;;;;;;;;;24.76;51.40;100022.06;7399779;19;1569;-41
2023/07/27 05:54:42;;;;;;;;;;;;;;;24.91;51.64;100010.34;7399083;19;1420;-42
2023/07/27 05:57:11;;;;;;;;;;;;;;;24.86;51.48;100008.22;7398990;19;1016;-42
2023/07/27 05:59:39;;;;;;;;;;;;;;;24.83;51.83;100014.03;7396763;19;1829;-41
2023/07/27 06:02:10;;;;;;;;;;;;;;;24.83;51.25;100014.03;7397794;19;1464;-41
2023/07/27 06:04:39;;;;;;;;;;;;;;;24.85;51.52;100017.38;7398187;19;1504;-42
2023/07/27 06:07:08;;;;;;;;;;;;;;;24.93;51.33;100010.97;7400075;19;1735;-41
2023/07/27 06:09:36;;;;;;;;;;;;;;;24.96;51.02;100013.31;7397402;19;1865;-42
2023/07/27 06:12:11;;;;;;;;;;;;;;;24.96;51.55;100003.31;7398705;19;982;-41
2023/07/27 06:14:39;;;;;;;;;;;;;;;24.89;51.41;100007.00;7395059;19;1437;-41
2023/07/27 06:17:10;;;;;;;;;;;;;;;25.02;51.48;100018.78;7399775;19;1003;-42
2023/07/27 06:19:39;;;;;;;;;;;;;;;25.00;51.44;100004.63;7394810;19;1523;-41
2023/07/27 06:22:07;;;;;;;;;;;;;;;25.12;51.47;100025.75;7395009;19;1482;-43
2023/07/27 06:24:36;;;;;;;;;;;;;;;25.41;51.17;100024.78;7394439;19;1422;-41
2023/07/27 06:27:04;;;;;;;;;;;;;;;25.33;51.02;100038.47;7394480;19;1608;-40
2023/07/27 06:29:33;;;;;;;;;;;;;;;25.37;51.15;100046.00;7394538;19;2236;-40
2023/07/27 06:32:01;;;;;;;;;;;;;;;25.25;51.81;100050.25;7392775;19;1433;-42
2023/07/27 06:34:32;;;;;;;;;;;;;;;25.29;51.01;100066.94;7393766;19;1359;-41
2023/07/27 06:37:01;;;;;;;;;;;;;;;25.28;50.52;100057.97;7393541;19;1241;-41
2023/07/27 06:39:30;;;;;;;;;;;;;;;25.19;51.00;100072.66;7393138;19;1259;-41
2023/07/27 06:41:58;;;;;;;;;;;;;;;25.11;50.86;100087.13;7392677;19;1626;-42
2023/07/27 06:44:26;;;;;;;;;;;;;;;25.12;50.31;100090.69;7393879;19;1155;-42
2023/07/27 06:46:55;;;;;;;;;;;;;;;25.09;50.31;100100.03;7392999;19;1481;-41
2023/07/27 06:49:23;;;;;;;;;;;;;;;25.18;49.68;100082.63;7395513;19;1858;-41
2023/07/27 06:51:54;;;;;;;;;;;;;;;25.11;49.89;100087.13;7388700;19;1658;-41
2023/07/27 06:54:25;;;;;;;;;;;;;;;25.17;50.04;100077.41;7390506;19;1155;-41
2023/07/27 06:56:53;;;;;;;;;;;;;;;25.01;50.21;100092.88;7390917;19;1652;-42
2023/07/27 06:59:22;;;;;;;;;;;;;;;24.93;50.81;100068.63;7388870;19;1309;-41
2023/07/27 07:01:50;;;;;;;;;;;;;;;25.04;50.72;100085.38;7386977;19;1243;-41
2023/07/27 07:04:18;;;;;;;;;;;;;;;25.16;50.44;100067.63;7392304;19;1584;-41
2023/07/27 07:06:48;;;;;;;;;;;;;;;25.24;50.06;100078.34;7393113;19;1190;-41
2023/07/27 07:09:18;;;;;;;;;;;;;;;25.28;50.30;100066.09;7389374;19;1865;-41
2023/07/27 07:11:47;;;;;;;;;;;;;;;25.17;50.14;100062.00;7388036;19;1366;-41
2023/07/27 07:14:16;;;;;;;;;;;;;;;25.27;49.79;100088.78;7388869;19;1242;-41
2023/07/27 07:16:45;;;;;;;;;;;;;;;25.25;49.90;100087.28;7387279;19;1405;-41
2023/07/27 07:19:13;;;;;;;;;;;;;;;25.39;50.32;100083.69;7388227;19;1396;-41
2023/07/27 07:21:41;;;;;;;;;;;;;;;25.44;50.18;100074.97;7389746;19;1438;-41
2023/07/27 07:24:13;;;;;;;;;;;;;;;25.44;49.74;100085.81;7387420;19;1465;-41
2023/07/27 07:26:44;;;;;;;;;;;;;;;25.44;50.22;100085.81;7384542;19;1557;-43
2023/07/27 07:29:13;;;;;;;;;;;;;;;25.52;49.80;100094.63;7388829;19;1858;-44
2023/07/27 07:31:41;;;;;;;;;;;;;;;25.64;49.95;100085.97;7389538;19;1454;-44
2023/07/27 07:34:10;;;;;;;;;;;;;;;25.75;49.85;100097.09;7387990;19;1382;-44
2023/07/27 07:36:38;;;;;;;;;;;;;;;25.98;49.44;100098.75;7389601;19;1534;-44
2023/07/27 07:39:06;;;;;;;;;;;;;;;26.04;49.47;100107.97;7389461;19;1173;-44
2023/07/27 07:41:35;;;;;;;;;;;;;;;26.11;49.80;100090.72;7389941;19;1556;-44
2023/07/27 07:44:06;;;;;;;;;;;;;;;26.01;50.29;100119.22;7388989;19;1224;-44
2023/07/27 07:46:35;;;;;;;;;;;;;;;26.05;50.09;100113.19;7390408;19;1528;-44
2023/07/27 07:49:03;;;;;;;;;;;;;;;25.25;48.73;100139.56;7390548;19;1831;-44
2023/07/27 07:51:31;;;;;;;;;;;;;;;25.05;48.66;100124.94;7386310;19;1532;-44
2023/07/27 07:54:00;;;;;;;;;;;;;;;24.96;48.64;100132.31;7388601;19;1200;-44
2023/07/27 07:56:28;;;;;;;;;;;;;;;24.84;49.05;100129.28;7390016;19;1132;-44
2023/07/27 07:58:56;;;;;;;;;;;;;;;24.72;48.92;100125.38;7389713;19;1322;-44
2023/07/27 08:01:27;;;;;;;;;;;;;;;24.67;48.59;100122.41;7388785;19;1931;-44
2023/07/27 08:03:55;;;;;;;;;;;;;;;24.73;48.66;100113.53;7388634;19;1843;-44
2023/07/27 08:06:24;;;;;;;;;;;;;;;24.75;49.08;100114.19;7387796;19;1206;-44
2023/07/27 08:08:52;;;;;;;;;;;;;;;24.57;49.25;100114.56;7388953;19;1260;-43
2023/07/27 08:11:20;;;;;;;;;;;;;;;24.65;48.62;100124.44;7387314;19;1868;-44
2023/07/27 08:13:49;;;;;;;;;;;;;;;24.60;48.26;100127.72;7390814;19;1571;-44
2023/07/27 08:16:17;;;;;;;;;;;;;;;24.44;48.87;100131.44;7387885;19;1509;-44
2023/07/27 08:18:48;;;;;;;;;;;;;;;24.43;48.47;100132.44;7388682;19;1604;-43
2023/07/27 08:21:17;;;;;;;;;;;;;;;24.54;48.27;100144.69;7390091;19;1332;-44
2023/07/27 08:23:45;;;;;;;;;;;;;;;24.59;48.58;100153.94;7389481;19;1447;-44
2023/07/27 08:26:14;;;;;;;;;;;;;;;24.51;49.02;100150.47;7389118;19;1171;-44
2023/07/27 08:28:43;;;;;;;;;;;;;;;24.44;48.82;100157.63;7389012;19;1485;-43
2023/07/27 08:31:11;;;;;;;;;;;;;;;24.38;48.82;100154.63;7386729;19;1865;-41
2023/07/27 08:33:39;;;;;;;;;;;;;;;24.56;49.07;100165.09;7385237;19;1523;-41
2023/07/27 08:36:10;;;;;;;;;;;;;;;24.90;48.59;100141.19;7385896;19;1782;-41
2023/07/27 08:38:39;;;;;;;;;;;;;;;25.18;48.39;100147.56;7388785;19;1543;-41
2023/07/27 08:41:07;;;;;;;;;;;;;;;25.39;47.86;100144.06;7388718;19;1615;-41
2023/07/27 08:43:35;;;;;;;;;;;;;;;25.55;47.77;100145.69;7389444;19;1176;-41
2023/07/27 08:46:04;;;;;;;;;;;;;;;25.44;47.62;100161.59;7390141;19;1460;-41
2023/07/27 08:48:33;;;;;;;;;;;;;;;25.48;47.89;100150.19;7388083;19;1884;-41
2023/07/27 08:51:01;;;;;;;;;;;;;;;25.15;48.37;100157.94;7385093;19;1848;-41
2023/07/27 08:53:32;;;;;;;;;;;;;;;24.89;48.80;100158.44;7390418;19;1155;-41
2023/07/27 08:56:01;;;;;;;;;;;;;;;24.70;49.16;100168.00;7385722;19;1263;-41
2023/07/27 08:58:31;;;;;;;;;;;;;;;24.52;49.38;100173.78;7384705;19;1574;-41
2023/07/27 09:00:59;;;;;;;;;;;;;;;24.48;50.25;100175.16;7386295;19;1516;-41
2023/07/27 09:03:27;;;;;;;;;;;;;;;24.39;50.48;100164.44;7388990;19;1248;-41
2023/07/27 09:06:00;;;;;;;;;;;;;;;24.39;50.54;100167.13;7387565;19;1204;-41
2023/07/27 09:08:32;;;;;;;;;;;;;;;24.55;50.56;100158.03;7388541;19;1511;-40
2023/07/27 09:11:07;;;;;;;;;;;;;;;24.49;50.82;100137.13;7386438;19;1849;-41
2023/07/27 09:13:36;;;;;;;;;;;;;;;24.46;50.61;100137.50;7389868;19;1076;-41
2023/07/27 09:16:05;;;;;;;;;;;;;;;24.42;50.39;100147.00;7388212;19;1273;-41
2023/07/27 09:18:36;;;;;;;;;;;;;;;24.39;51.07;100142.81;7387219;19;1598;-41
2023/07/27 09:21:08;;;;;;;;;;;;;;;24.53;51.43;100146.56;7387477;19;1541;-40
2023/07/27 09:23:39;;;;;;;;;;;;;;;24.55;51.99;100136.41;7395506;19;1344;-41
2023/07/27 09:26:08;;;;;;;;;;;;;;;24.48;52.15;100146.25;7395357;19;1558;-41
2023/07/27 09:28:36;;;;;;;;;;;;;;;24.33;52.33;100154.38;7396047;19;1040;-41
2023/07/27 09:31:05;;;;;;;;;;;;;;;24.35;52.03;100162.28;7393553;19;1863;-40
2023/07/27 09:33:34;;;;;;;;;;;;;;;24.18;52.31;100165.16;7395141;19;1479;-41
2023/07/27 09:36:03;;;;;;;;;;;;;;;23.98;51.61;100166.72;7396331;19;1447;-41
2023/07/27 09:38:31;;;;;;;;;;;;;;;23.96;51.35;100164.19;7396036;19;1447;-42
2023/07/27 09:41:07;;;;;;;;;;;;;;;23.91;51.23;100155.78;7394345;19;1346;-41
2023/07/27 09:43:39;;;;;;;;;;;;;;;23.96;51.12;100141.75;7395960;19;1011;-41
2023/07/27 09:46:07;;;;;;;;;;;;;;;24.05;50.75;100158.69;7393917;19;1811;-40
2023/07/27 09:48:35;;;;;;;;;;;;;;;24.22;50.71;100158.34;7394274;19;1851;-41
2023/07/27 09:51:06;;;;;;;;;;;;;;;24.22;50.66;100142.13;7393806;19;1842;-41
2023/07/27 09:53:36;;;;;;;;;;;;;;;24.21;51.31;100140.47;7395729;19;1495;-41
2023/07/27 09:56:07;;;;;;;;;;;;;;;24.40;51.05;100138.25;7394462;19;1536;-41
2023/07/27 09:58:36;;;;;;;;;;;;;;;24.27;51.42;100146.97;7394529;19;1263;-41
2023/07/27 10:01:04;;;;;;;;;;;;;;;24.31;50.85;100129.41;7393359;19;1582;-41
2023/07/27 10:03:32;;;;;;;;;;;;;;;24.36;50.91;100116.16;7395005;19;1278;-40
2023/07/27 10:06:02;;;;;;;;;;;;;;;24.39;51.02;100137.41;7395273;19;1665;-41
2023/07/27 10:08:30;;;;;;;;;;;;;;;24.33;51.16;100153.50;7393285;19;1303;-41
2023/07/27 10:11:01;;;;;;;;;;;;;;;24.32;50.70;100146.44;7390549;19;1847;-41
2023/07/27 10:13:43;;;;;;;;;;;;;;;24.31;50.84;100136.66;7395404;19;1891;-41
2023/07/27 10:16:12;;;;;;;;;;;;;;;24.12;51.14;100156.97;7394306;19;1489;-41
2023/07/27 10:18:42;;;;;;;;;;;;;;;24.25;50.70;100162.53;7392224;19;1560;-41
2023/07/27 10:21:25;;;;;;;;;;;;;;;24.23;50.96;100151.06;7387838;19;1540;-41
2023/07/27 10:23:57;;;;;;;;;;;;;;;24.58;50.64;100151.41;7392666;19;1814;-41
2023/07/27 10:26:40;;;;;;;;;;;;;;;24.77;50.23;100133.75;7392921;19;1278;-41
2023/07/27 10:29:18;;;;;;;;;;;;;;;25.04;49.93;100128.69;7391875;19;1358;-42
2023/07/27 10:31:46;;;;;;;;;;;;;;;25.19;49.93;100124.06;7391465;19;1856;-41
2023/07/27 10:34:13;;;;;;;;;;;;;;;25.26;50.08;100122.28;7394653;19;1132;-41
2023/07/27 10:36:52;;;;;;;;;;;;;;;25.30;49.86;100123.56;7393582;19;1266;-41
2023/07/27 10:39:21;;;;;;;;;;;;;;;25.34;49.89;100122.16;7391107;19;1046;-41
2023/07/27 10:42:03;;;;;;;;;;;;;;;25.38;49.55;100111.78;7392072;19;1218;-41
2023/07/27 10:44:41;;;;;;;;;;;;;;;24.99;51.01;100127.38;7395009;19;1284;-41
2023/07/27 10:47:10;;;;;;;;;;;;;;;24.87;51.35;100115.38;7394204;19;1611;-41
2023/07/27 10:49:43;;;;;;;;;;;;;;;25.05;51.20;100106.84;7391904;19;1207;-41
2023/07/27 10:52:12;;;;;;;;;;;;;;;25.16;51.19;100119.84;7389393;19;1854;-41
2023/07/27 10:54:42;;;;;;;;;;;;;;;25.06;51.16;100113.09;7389959;19;1440;-41
2023/07/27 10:57:11;;;;;;;;;;;;;;;24.85;50.92;100130.09;7392645;19;1345;-41
2023/07/27 10:59:42;;;;;;;;;;;;;;;24.79;50.96;100116.34;7392895;19;1544;-41
2023/07/27 11:02:14;;;;;;;;;;;;;;;24.09;50.79;99985.28;7389666;19;1641;-41
2023/07/27 11:04:42;;;;;;;;;;;;;;;24.93;50.97;100125.44;7388687;19;1355;-41
2023/07/27 11:07:12;;;;;;;;;;;;;;;24.86;51.84;100123.69;7398121;19;1515;-41
2023/07/27 11:09:40;;;;;;;;;;;;;;;24.71;52.13;100123.69;7397781;19;1286;-41
2023/07/27 11:12:09;;;;;;;;;;;;;;;24.72;52.30;100128.09;7388058;19;1837;-41
2023/07/27 11:14:37;;;;;;;;;;;;;;;24.72;52.11;100120.81;7385413;19;2001;-41
2023/07/27 11:17:08;;;;;;;;;;;;;;;24.87;52.20;100123.50;7388212;19;2432;-41
2023/07/27 11:19:37;;;;;;;;;;;;;;;24.87;51.84;100126.19;7394888;19;1379;-41
2023/07/27 11:22:06;;;;;;;;;;;;;;;24.80;52.14;100117.16;7395435;19;1513;-41
2023/07/27 11:24:34;;;;;;;;;;;;;;;24.32;53.10;100122.13;7396153;19;1870;-41
2023/07/27 11:27:03;;;;;;;;;;;;;;;24.43;53.23;100118.94;7395814;19;1610;-41
2023/07/27 11:29:32;;;;;;;;;;;;;;;24.69;52.53;100115.78;7394891;19;1490;-41
2023/07/27 11:32:01;;;;;;;;;;;;;;;24.89;52.46;100112.47;7392029;19;1854;-40
2023/07/27 11:34:32;;;;;;;;;;;;;;;24.95;52.76;100106.31;7391300;19;1628;-42
2023/07/27 11:37:01;;;;;;;;;;;;;;;25.03;52.44;100106.19;7394127;19;1619;-41
2023/07/27 11:39:30;;;;;;;;;;;;;;;25.04;52.92;100107.88;6871940;19;10000050;-41
2023/07/27 11:41:59;;;;;;;;;;;;;;;24.97;52.68;100105.09;7388852;19;1915;-40
2023/07/27 11:44:27;;;;;;;;;;;;;;;24.99;53.46;100113.03;7387738;19;1525;-40
2023/07/27 11:46:56;;;;;;;;;;;;;;;25.13;52.26;100098.59;7387966;19;1363;-41
2023/07/27 11:49:25;;;;;;;;;;;;;;;25.24;52.10;100104.56;7389976;19;1396;-41
2023/07/27 11:51:56;;;;;;;;;;;;;;;25.15;52.33;100103.84;7386999;19;1841;-40
2023/07/27 11:54:24;;;;;;;;;;;;;;;25.04;52.85;100094.34;7389150;19;1560;-41
2023/07/27 11:56:53;;;;;;;;;;;;;;;24.92;53.01;100101.28;7387710;19;1857;-41
2023/07/27 11:59:22;;;;;;;;;;;;;;;25.02;52.55;100109.91;7389267;19;1567;-40
2023/07/27 12:01:51;;;;;;;;;;;;;;;24.93;52.38;100111.06;7321712;19;14063;-41
2023/07/27 12:04:19;;;;;;;;;;;;;;;24.87;52.74;100103.72;7388024;19;1495;-41
2023/07/27 12:06:48;;;;;;;;;;;;;;;24.74;53.53;100145.78;7389277;19;1486;-41
2023/07/27 12:09:19;;;;;;;;;;;;;;;24.54;53.94;100118.50;7385728;19;1501;-42
2023/07/27 12:11:47;;;;;;;;;;;;;;;24.62;53.53;100098.63;7386750;19;1881;-42
2023/07/27 12:14:15;;;;;;;;;;;;;;;24.65;53.62;100100.13;7388359;19;1626;-42
2023/07/27 12:16:44;;;;;;;;;;;;;;;24.58;53.23;100086.53;7387789;19;1447;-42
2023/07/27 12:19:10;;;;;;;;;;;;;;;24.60;53.39;100101.53;7388750;19;1404;-42
2023/07/27 12:21:40;;;;;;;;;;;;;;;24.65;53.60;100103.69;7388246;19;1536;-42
2023/07/27 12:24:09;;;;;;;;;;;;;;;24.67;53.58;100103.47;7386645;19;1633;-42
2023/07/27 12:26:40;;;;;;;;;;;;;;;24.72;53.86;100098.34;7386872;19;1597;-42
2023/07/27 12:29:08;;;;;;;;;;;;;;;24.77;53.39;100096.75;7388568;19;1540;-42
2023/07/27 12:31:37;;;;;;;;;;;;;;;24.80;53.55;100096.34;7383779;19;1865;-42
2023/07/27 12:34:05;;;;;;;;;;;;;;;24.85;53.86;100106.63;7389408;19;1430;-42
2023/07/27 12:36:34;;;;;;;;;;;;;;;24.87;54.38;100112.69;7387982;19;1795;-42
2023/07/27 12:39:02;;;;;;;;;;;;;;;24.85;54.79;100113.88;7386745;19;2140;-42
2023/07/27 12:41:30;;;;;;;;;;;;;;;24.84;54.91;100114.91;7387230;19;1462;-42
2023/07/27 12:44:02;;;;;;;;;;;;;;;24.75;55.18;100108.75;7389334;19;1501;-42
2023/07/27 12:46:30;;;;;;;;;;;;;;;24.72;55.28;100119.97;7388803;19;1147;-42
2023/07/27 12:48:58;;;;;;;;;;;;;;;24.72;55.79;100092.94;7388238;19;1631;-42
2023/07/27 12:51:27;;;;;;;;;;;;;;;24.72;55.92;100111.88;7384581;19;1874;-42
2023/07/27 12:53:55;;;;;;;;;;;;;;;24.70;56.02;100106.63;7391043;19;1556;-41
2023/07/27 12:56:23;;;;;;;;;;;;;;;24.75;55.77;100120.44;7378787;19;1506;-42
2023/07/27 12:58:52;;;;;;;;;;;;;;;24.69;56.12;100115.78;7387729;19;1542;-43
2023/07/27 13:01:22;;;;;;;;;;;;;;;24.73;56.05;100117.09;7388084;19;1548;-42